Time;durP1;ratioP1;P1;durP2;ratioP2;P2;SDS_P1;SDS_P2;PMS_P1;PMS_P2;Temp;Humidity;BMP_temperature;BMP_pressure;BME280_temperature;BME280_humidity;BME280_pressure;Samples;Min_cycle;Max_cycle;Signal;HPM_P1;HPM_P2
2023/01/24 00:01:55;;;;;;;175.00;29.37;;;;;;;-1.52;100.00;98500.63;10495246;28;20533;-77
2023/01/24 00:06:56;;;;;;;251.20;31.90;;;;;;;-1.61;100.00;98508.53;10494887;28;20304;-79
2023/01/24 00:11:56;;;;;;;460.03;40.93;;;;;;;-1.60;100.00;98510.25;10494543;28;20196;-78
2023/01/24 00:16:56;;;;;;;226.70;31.00;;;;;;;-1.52;100.00;98504.91;10496014;28;20342;-78
2023/01/24 00:21:57;;;;;;;392.97;35.53;;;;;;;-1.59;100.00;98505.94;10495934;28;20218;-79
2023/01/24 00:26:57;;;;;;;584.13;39.77;;;;;;;-1.62;100.00;98512.00;10493821;28;20256;-79
2023/01/24 00:31:57;;;;;;;235.97;32.63;;;;;;;-1.65;100.00;98506.94;10477866;28;20195;-79
2023/01/24 00:36:58;;;;;;;217.87;30.13;;;;;;;-1.62;100.00;98515.41;10476704;28;20232;-79
2023/01/24 00:41:58;;;;;;;196.80;30.27;;;;;;;-1.50;100.00;98521.13;10493716;28;20237;-78
2023/01/24 00:46:58;;;;;;;395.03;37.77;;;;;;;-1.68;100.00;98519.88;10492749;28;20219;-78
2023/01/24 00:51:59;;;;;;;307.97;36.53;;;;;;;-1.67;100.00;98516.41;10492828;28;20202;-77
2023/01/24 00:56:59;;;;;;;320.23;35.27;;;;;;;-1.64;100.00;98522.31;10491867;28;20672;-77
2023/01/24 01:02:00;;;;;;;199.67;30.50;;;;;;;-1.65;100.00;98527.50;10475124;28;20598;-76
2023/01/24 01:07:00;;;;;;;179.23;30.80;;;;;;;-1.62;100.00;98528.28;10475017;28;20322;-77
2023/01/24 01:12:00;;;;;;;137.83;28.97;;;;;;;-1.59;100.00;98527.38;10491756;28;20191;-76
2023/01/24 01:17:01;;;;;;;166.37;30.30;;;;;;;-1.57;100.00;98530.72;10491711;28;20199;-76
2023/01/24 01:22:01;;;;;;;261.17;37.47;;;;;;;-1.69;100.00;98541.28;10491109;28;20233;-76
2023/01/24 01:27:02;;;;;;;178.70;30.80;;;;;;;-1.62;100.00;98548.00;10474179;28;20223;-76
2023/01/24 01:32:02;;;;;;;195.40;31.53;;;;;;;-1.69;100.00;98537.00;10491011;28;20191;-76
2023/01/24 01:37:03;;;;;;;211.87;36.47;;;;;;;-1.68;100.00;98545.56;10473332;28;20187;-76
2023/01/24 01:42:03;;;;;;;237.60;33.77;;;;;;;-1.73;100.00;98535.38;10473826;28;20292;-76
2023/01/24 01:47:13;;;;;;;178.53;32.60;;;;;;;-1.70;100.00;98532.75;10491333;28;20211;-76
2023/01/24 01:52:13;;;;;;;275.87;39.27;;;;;;;-1.67;100.00;98524.09;10490406;28;20265;-76
2023/01/24 01:57:17;;;;;;;180.47;32.97;;;;;;;-1.70;100.00;98521.59;10489557;28;20191;-75
2023/01/24 02:02:19;;;;;;;368.30;40.90;;;;;;;-1.69;100.00;98531.84;10471357;28;20187;-76
2023/01/24 02:07:21;;;;;;;180.37;33.30;;;;;;;-1.71;100.00;98527.66;10489493;28;20223;-76
2023/01/24 02:12:26;;;;;;;646.77;53.50;;;;;;;-1.78;100.00;98531.22;10473070;28;20191;-76
2023/01/24 02:17:29;;;;;;;408.87;41.57;;;;;;;-1.78;100.00;98529.50;10473123;28;20179;-76
2023/01/24 02:22:40;;;;;;;277.97;39.00;;;;;;;-1.74;100.00;98522.56;10472491;28;20199;-76
2023/01/24 02:27:40;;;;;;;279.53;37.20;;;;;;;-1.69;100.00;98519.00;10489524;28;20208;-76
2023/01/24 02:32:41;;;;;;;219.17;33.43;;;;;;;-1.66;100.00;98515.53;10489415;28;20194;-76
2023/01/24 02:37:42;;;;;;;390.30;43.40;;;;;;;-1.78;100.00;98510.69;10488727;28;20278;-76
2023/01/24 02:42:42;;;;;;;175.10;33.53;;;;;;;-1.70;100.00;98514.75;10490179;28;20256;-75
2023/01/24 02:47:45;;;;;;;444.03;44.37;;;;;;;-1.75;100.00;98515.75;10488690;28;21130;-76
2023/01/24 02:58:05;;;;;;;243.33;35.70;;;;;;;-1.60;100.00;98515.38;10482899;28;20556;-76
2023/01/24 03:03:07;;;;;;;386.43;40.53;;;;;;;-1.67;100.00;98514.69;10496121;28;20187;-76
2023/01/24 03:08:07;;;;;;;229.83;34.10;;;;;;;-1.60;100.00;98515.38;10479990;28;20229;-76
2023/01/24 03:34:32;;;;;;;177.17;36.10;;;;;;;-1.67;100.00;98539.53;10495343;28;20225;-76
2023/01/24 03:45:15;;;;;;;228.77;36.77;;;;;;;-1.69;100.00;98531.00;10474955;28;20199;-75
2023/01/24 03:55:37;;;;;;;358.47;42.70;;;;;;;-1.65;100.00;98545.50;10494979;28;20183;-74
2023/01/24 04:00:39;;;;;;;682.87;63.43;;;;;;;-1.74;100.00;98543.13;10460474;28;20538;-77
2023/01/24 04:05:53;;;;;;;265.47;35.87;;;;;;;-1.63;100.00;98541.97;10494541;28;20273;-76
2023/01/24 04:10:56;;;;;;;552.07;46.93;;;;;;;-1.74;100.00;98533.69;10494406;28;20293;-76
2023/01/24 04:15:56;;;;;;;557.77;49.50;;;;;;;-1.76;100.00;98529.47;10493805;28;20554;-76
2023/01/24 04:21:20;;;;;;;431.70;46.37;;;;;;;-1.75;100.00;98532.00;10492490;28;20191;-76
2023/01/24 04:26:20;;;;;;;497.50;48.90;;;;;;;-1.74;100.00;98533.69;10494051;28;20272;-76
2023/01/24 04:31:23;;;;;;;495.60;44.30;;;;;;;-1.69;100.00;98537.00;10493848;28;20277;-76
2023/01/24 04:36:32;;;;;;;413.37;40.80;;;;;;;-1.69;100.00;98537.00;10494912;28;20635;-75
2023/01/24 04:41:34;;;;;;;562.70;48.03;;;;;;;-1.70;100.00;98530.19;10493593;28;20250;-76
2023/01/24 04:46:35;;;;;;;547.07;43.73;;;;;;;-1.72;100.00;98533.66;10492329;28;20323;-76
2023/01/24 04:51:35;;;;;;;885.00;73.37;;;;;;;-1.81;100.00;98529.56;10494174;28;20200;-76
2023/01/24 04:56:39;;;;;;;285.90;42.20;;;;;;;-1.77;100.00;98533.75;10492454;28;20191;-77
2023/01/24 05:01:41;;;;;;;793.87;58.07;;;;;;;-1.85;100.00;98539.06;10491956;28;20185;-76
2023/01/24 05:06:54;;;;;;;397.37;43.43;;;;;;;-1.77;100.00;98554.31;10492304;28;20215;-76
2023/01/24 05:11:56;;;;;;;756.43;57.47;;;;;;;-1.77;100.00;98554.31;10491839;28;20198;-76
2023/01/24 05:16:57;;;;;;;830.47;66.87;;;;;;;-1.76;100.00;98555.16;10490136;28;20187;-75
2023/01/24 05:21:57;;;;;;;916.23;63.00;;;;;;;-1.89;100.00;98563.13;10447084;28;20196;-76
2023/01/24 05:26:58;;;;;;;807.97;51.07;;;;;;;-1.82;100.00;98569.84;10448663;28;20204;-75
2023/01/24 05:32:01;;;;;;;611.87;59.40;;;;;;;-1.70;100.00;98576.44;10433217;28;20664;-76
2023/01/24 05:37:02;;;;;;;674.60;56.13;;;;;;;-1.80;100.00;98578.34;10433594;28;20224;-75
2023/01/24 05:42:02;;;;;;;307.17;37.67;;;;;;;-1.71;100.00;98579.03;10449453;28;20334;-75
2023/01/24 05:47:12;;;;;;;536.00;47.37;;;;;;;-1.73;100.00;98583.34;10433853;28;20623;-76
2023/01/24 05:52:20;;;;;;;578.63;49.40;;;;;;;-1.72;100.00;98578.16;10433392;28;20656;-76
2023/01/24 05:57:24;;;;;;;500.03;40.50;;;;;;;-1.71;100.00;98576.47;10433254;28;20184;-76
2023/01/24 06:02:42;;;;;;;365.53;35.67;;;;;;;-1.77;100.00;98581.75;10450493;28;20207;-75
2023/01/24 06:07:44;;;;;;;438.47;38.13;;;;;;;-1.71;100.00;98579.88;10448634;28;20223;-76
2023/01/24 06:12:45;;;;;;;794.60;63.73;;;;;;;-1.83;100.00;98585.28;10448653;28;20191;-76
2023/01/24 06:17:47;;;;;;;422.67;39.87;;;;;;;-1.84;100.00;98599.00;10448597;28;20195;-75
2023/01/24 06:22:52;;;;;;;689.73;49.70;;;;;;;-1.89;100.00;98611.94;10447548;28;20537;-76
2023/01/24 06:27:54;;;;;;;560.80;44.13;;;;;;;-1.83;100.00;98616.09;10431837;28;20215;-76
2023/01/24 06:33:06;;;;;;;533.37;48.87;;;;;;;-1.75;100.00;98616.78;10448296;28;20191;-75
2023/01/24 06:38:17;;;;;;;217.20;30.20;;;;;;;-1.72;100.00;98623.56;10431284;28;20214;-75
2023/01/24 06:43:17;;;;;;;343.53;35.97;;;;;;;-1.81;100.00;98619.47;10447623;28;20572;-76
2023/01/24 06:48:18;;;;;;;359.73;35.87;;;;;;;-1.82;100.00;98625.50;10449050;28;20225;-75
2023/01/24 06:53:18;;;;;;;346.60;35.57;;;;;;;-1.90;100.00;98624.81;10447728;28;20280;-75
2023/01/24 06:58:19;;;;;;;491.10;42.13;;;;;;;-1.89;100.00;98634.22;10448241;28;20188;-75
2023/01/24 07:03:19;;;;;;;359.27;35.60;;;;;;;-1.81;100.00;98637.44;10447926;28;20333;-76
2023/01/24 07:08:21;;;;;;;152.80;29.47;;;;;;;-1.78;100.00;98631.41;10448308;28;20216;-75
2023/01/24 07:13:21;;;;;;;427.40;38.37;;;;;;;-1.78;100.00;98629.69;10448779;28;20224;-76
2023/01/24 07:18:22;;;;;;;368.37;37.53;;;;;;;-1.79;100.00;98638.28;10448631;28;20283;-75
2023/01/24 07:23:24;;;;;;;325.80;36.03;;;;;;;-1.76;100.00;98642.50;10447960;28;20207;-75
2023/01/24 07:28:25;;;;;;;126.40;29.27;;;;;;;-1.76;100.00;98645.06;10441874;28;20314;-75
2023/01/24 07:33:25;;;;;;;312.97;34.60;;;;;;;-1.78;100.00;98637.38;10448058;28;20198;-75
2023/01/24 07:38:26;;;;;;;181.07;30.23;;;;;;;-1.63;100.00;98649.91;10455159;28;20236;-75
2023/01/24 07:43:26;;;;;;;180.50;31.97;;;;;;;-1.62;100.00;98654.19;10455657;28;20644;-76
2023/01/24 07:48:27;;;;;;;252.00;36.40;;;;;;;-1.73;100.00;98655.28;10455467;28;20270;-75
2023/01/24 07:53:27;;;;;;;174.93;29.97;;;;;;;-1.63;100.00;98642.19;10455441;28;20188;-75
2023/01/24 07:58:27;;;;;;;178.57;31.20;;;;;;;-1.63;100.00;98646.50;10468909;28;20195;-76
2023/01/24 08:03:28;;;;;;;155.30;29.93;;;;;;;-1.66;100.00;98651.72;10459139;28;20607;-76
2023/01/24 08:08:28;;;;;;;152.10;30.00;;;;;;;-1.62;100.00;98646.47;10478874;28;20223;-74
2023/01/24 08:13:28;;;;;;;143.37;29.30;;;;;;;-1.64;100.00;98647.38;10484190;28;20201;-74
2023/01/24 08:18:29;;;;;;;121.33;27.47;;;;;;;-1.56;100.00;98660.94;10453752;28;20184;-75
2023/01/24 08:23:29;;;;;;;143.07;28.63;;;;;;;-1.50;100.00;98668.50;10452929;28;20707;-76
2023/01/24 08:28:31;;;;;;;164.57;31.87;;;;;;;-1.53;100.00;98673.72;10487738;28;20694;-76
2023/01/24 08:33:31;;;;;;;141.17;30.63;;;;;;;-1.60;100.00;98679.84;10469305;28;20199;-75
2023/01/24 08:38:31;;;;;;;181.53;31.27;;;;;;;-1.63;100.00;98685.88;10451449;28;20231;-75
2023/01/24 08:43:32;;;;;;;164.23;30.37;;;;;;;-1.46;100.00;98688.09;10452603;28;20192;-75
2023/01/24 08:48:32;;;;;;;144.97;29.53;;;;;;;-1.50;100.00;98695.91;10450619;28;20384;-75
2023/01/24 08:53:33;;;;;;;165.43;30.27;;;;;;;-1.47;100.00;98698.41;10447825;28;20192;-75
2023/01/24 08:58:33;;;;;;;170.47;31.33;;;;;;;-1.57;100.00;98700.34;10467918;28;20231;-75
2023/01/24 09:03:34;;;;;;;151.67;33.60;;;;;;;-1.30;100.00;98695.50;10479558;28;20196;-76
2023/01/24 09:08:34;;;;;;;138.00;32.87;;;;;;;-1.36;100.00;98696.47;10463443;28;20219;-76
2023/01/24 09:13:34;;;;;;;251.80;35.53;;;;;;;-1.32;100.00;98690.41;10466173;28;20188;-75
2023/01/24 09:18:35;;;;;;;272.40;33.53;;;;;;;-1.23;100.00;98693.63;10451730;28;20290;-76
2023/01/24 09:23:35;;;;;;;205.07;31.10;;;;;;;-1.34;100.00;98697.28;10448007;28;20211;-77
2023/01/24 09:28:36;;;;;;;196.43;30.80;;;;;;;-1.31;100.00;98701.53;10449061;28;20215;-76
2023/01/24 09:33:36;;;;;;;120.93;29.03;;;;;;;-1.18;100.00;98690.09;10474829;28;20191;-76
2023/01/24 09:38:36;;;;;;;223.33;35.33;;;;;;;-1.41;100.00;98685.44;10489981;28;20242;-77
2023/01/24 09:43:59;;;;;;;111.93;28.17;;;;;;;-1.23;100.00;98686.75;10489456;28;20309;-76
2023/01/24 09:49:14;;;;;;;142.77;28.20;;;;;;;-1.38;100.00;98680.22;10438216;28;20675;-76
2023/01/24 09:54:21;;;;;;;138.10;29.77;;;;;;;-1.37;100.00;98669.06;10446790;28;20670;-76
2023/01/24 09:59:31;;;;;;;140.80;28.57;;;;;;;-1.19;100.00;98672.97;10446169;28;20626;-76
2023/01/24 10:04:34;;;;;;;120.40;26.80;;;;;;;-1.03;100.00;98664.88;10460903;28;20233;-76
2023/01/24 10:09:47;;;;;;;113.57;26.53;;;;;;;-1.15;100.00;98655.72;10462399;28;20215;-76
2023/01/24 10:14:50;;;;;;;97.33;25.83;;;;;;;-1.09;100.00;98651.31;10461378;28;20189;-77
2023/01/24 10:20:07;;;;;;;102.67;27.37;;;;;;;-1.19;100.00;98651.56;10446927;28;20191;-75
2023/01/24 10:25:21;;;;;;;109.20;26.87;;;;;;;-1.19;100.00;98642.09;10450319;28;20199;-75
2023/01/24 10:30:37;;;;;;;121.87;27.03;;;;;;;-1.08;100.00;98631.56;10460658;28;20207;-75
2023/01/24 10:50:52;;;;;;;124.60;26.37;;;;;;;-1.14;100.00;98616.28;10470247;23;2372707;-64
2023/01/24 10:55:59;;;;;;;127.40;29.97;;;;;;;-0.94;100.00;98626.91;10438640;28;20216;-65
2023/01/24 11:01:36;;;;;;;113.90;25.93;;;;;;;-0.95;100.00;98614.97;10432683;28;20377;-64
2023/01/24 11:06:39;;;;;;;169.40;28.03;;;;;;;-1.06;100.00;98604.06;10401530;28;20207;-66
2023/01/24 11:11:43;;;;;;;174.40;33.60;;;;;;;-0.97;100.00;98610.72;10400876;28;20224;-65
2023/01/24 11:16:50;;;;;;;210.73;30.37;;;;;;;-0.90;100.00;98612.28;10399859;28;20769;-65
2023/01/24 11:21:53;;;;;;;129.47;29.87;;;;;;;-0.84;100.00;98601.81;10443115;28;20305;-65
2023/01/24 11:27:14;;;;;;;122.13;29.53;;;;;;;-0.73;100.00;98593.84;10442630;28;20603;-65
2023/01/24 11:32:30;;;;;;;180.80;30.47;;;;;;;-0.67;100.00;98579.94;10442081;28;20710;-65
2023/01/24 11:37:45;;;;;;;309.80;32.80;;;;;;;-1.02;100.00;98574.00;10441684;28;20742;-64
2023/01/24 11:43:03;;;;;;;142.23;30.80;;;;;;;-1.03;100.00;98583.41;10424252;28;20211;-65
2023/01/24 11:48:28;;;;;;;99.17;28.57;;;;;;;-0.98;100.00;98585.88;10411486;28;20188;-65
2023/01/24 11:53:49;;;;;;;107.93;28.67;;;;;;;-0.82;100.00;98576.88;10391841;28;20239;-66
2023/01/24 11:59:20;;;;;;;124.13;31.03;;;;;;;-0.77;100.00;98572.47;10374260;28;20248;-66
2023/01/24 12:04:45;;;;;;;125.63;27.83;;;;;;;-0.96;100.00;98569.53;10355021;28;20220;-66
2023/01/24 12:10:27;;;;;;;106.80;27.93;;;;;;;-0.88;100.00;98564.19;10354769;28;20244;-65
2023/01/24 12:15:48;;;;;;;114.93;27.10;;;;;;;-1.03;100.00;98557.69;10371969;28;20228;-66
2023/01/24 12:21:08;;;;;;;90.33;26.73;;;;;;;-0.89;100.00;98544.47;10395504;28;20244;-66
2023/01/24 12:26:16;;;;;;;140.03;30.03;;;;;;;-1.04;100.00;98542.31;10395296;28;20199;-66
2023/01/24 12:31:24;;;;;;;117.90;27.13;;;;;;;-1.10;100.00;98545.91;10394818;28;20291;-66
2023/01/24 12:36:38;;;;;;;132.03;31.43;;;;;;;-1.01;100.00;98537.06;10394454;28;20597;-65
2023/01/24 12:41:38;;;;;;;150.73;29.53;;;;;;;-0.98;100.00;98540.44;10393421;28;20647;-65
2023/01/24 12:47:06;;;;;;;183.23;30.77;;;;;;;-1.02;100.00;98532.84;10412167;28;20278;-66
2023/01/24 12:52:14;;;;;;;110.57;29.20;;;;;;;-1.01;100.00;98544.78;10397752;28;20229;-65
2023/01/24 12:57:29;;;;;;;233.67;32.67;;;;;;;-1.02;100.00;98541.38;10371108;28;20319;-65
2023/01/24 13:02:39;;;;;;;192.63;32.47;;;;;;;-1.18;100.00;98545.22;10369309;28;20610;-66
2023/01/24 13:07:53;;;;;;;119.00;29.63;;;;;;;-1.09;100.00;98542.41;10357481;28;20226;-65
2023/01/24 13:12:54;;;;;;;125.50;28.17;;;;;;;-1.06;100.00;98542.34;10390868;28;20220;-65
2023/01/24 13:18:23;;;;;;;105.67;26.60;;;;;;;-0.96;100.00;98540.41;10370768;28;20224;-64
2023/01/24 13:23:56;;;;;;;95.40;27.27;;;;;;;-1.03;100.00;98546.56;10362665;28;20228;-66
2023/01/24 13:29:18;;;;;;;85.03;25.23;;;;;;;-1.05;100.00;98538.06;10351870;28;20274;-63
2023/01/24 13:34:21;;;;;;;111.23;30.37;;;;;;;-1.24;100.00;98543.66;10351483;28;20204;-66
2023/01/24 13:39:32;;;;;;;81.20;26.13;;;;;;;-1.12;100.00;98537.34;10351611;28;20224;-66
2023/01/24 13:44:35;;;;;;;78.57;24.87;;;;;;;-1.08;100.00;98542.38;10369061;28;20228;-64
2023/01/24 13:50:03;;;;;;;91.97;26.60;;;;;;;-1.23;100.00;98540.19;10368439;28;20225;-65
2023/01/24 13:55:31;;;;;;;73.97;22.60;;;;;;;-1.24;100.00;98541.09;10367949;28;20197;-66
2023/01/24 14:00:32;;;;;;;70.10;23.43;;;;;;;-1.15;100.00;98540.88;10405630;28;20220;-65
2023/01/24 14:05:34;;;;;;;66.33;23.20;;;;;;;-1.16;100.00;98535.75;10409016;28;20434;-65
2023/01/24 14:10:39;;;;;;;72.80;24.53;;;;;;;-1.36;100.00;98531.94;10382428;28;20305;-63
2023/01/24 14:15:40;;;;;;;70.30;22.23;;;;;;;-1.20;100.00;98534.97;10389194;28;20319;-62
2023/01/24 14:20:45;;;;;;;69.50;22.57;;;;;;;-1.23;100.00;98542.75;10385854;28;20291;-64
2023/01/24 14:25:53;;;;;;;61.47;21.20;;;;;;;-1.32;100.00;98546.44;10361226;28;20667;-66
2023/01/24 14:30:59;;;;;;;57.23;19.93;;;;;;;-1.30;100.00;98547.22;10366554;28;20715;-65
2023/01/24 14:36:27;;;;;;;62.97;22.23;;;;;;;-1.25;100.00;98549.69;10401897;28;20222;-67
2023/01/24 14:41:28;;;;;;;67.30;22.73;;;;;;;-1.31;100.00;98547.25;10376477;28;20209;-65
2023/01/24 14:46:29;;;;;;;69.33;21.90;;;;;;;-1.21;100.00;98558.16;10379125;28;20188;-66
2023/01/24 14:51:29;;;;;;;63.73;21.73;;;;;;;-1.17;100.00;98558.03;10378341;28;20235;-66
2023/01/24 14:56:38;;;;;;;57.00;20.20;;;;;;;-1.27;100.00;98559.16;10371870;28;20214;-66
2023/01/24 15:01:39;;;;;;;53.60;19.77;;;;;;;-1.37;100.00;98558.53;10408102;28;20232;-66
2023/01/24 15:06:39;;;;;;;58.57;20.30;;;;;;;-1.36;100.00;98549.06;10407247;28;20193;-66
2023/01/24 15:11:40;;;;;;;49.60;18.57;;;;;;;-1.37;100.00;98550.81;10408060;28;20213;-66
2023/01/24 15:16:51;;;;;;;56.63;18.83;;;;;;;-1.32;100.00;98566.13;10387330;28;20654;-67
2023/01/24 15:21:53;;;;;;;55.13;20.07;;;;;;;-1.41;100.00;98558.63;10407386;28;20208;-66
2023/01/24 15:26:54;;;;;;;45.77;17.87;;;;;;;-1.39;100.00;98546.56;10397022;28;20242;-66
2023/01/24 15:31:55;;;;;;;53.53;18.23;;;;;;;-1.24;100.00;98569.38;10378618;28;20215;-66
2023/01/24 15:37:01;;;;;;;46.53;18.87;;;;;;;-1.35;100.00;98571.34;10411549;28;20216;-65
2023/01/24 15:52:44;;;;;;;52.40;18.87;;;;;;;-1.39;100.00;98559.44;10413014;28;20232;-66
2023/01/24 15:57:44;;;;;;;57.27;19.87;;;;;;;-1.29;100.00;98556.63;10413902;28;20224;-67
2023/01/24 16:02:44;;;;;;;58.27;20.70;;;;;;;-1.35;100.00;98543.06;10404721;28;20709;-66
2023/01/24 16:07:45;;;;;;;56.40;20.40;;;;;;;-1.30;100.00;98543.81;10373047;28;20347;-67
2023/01/24 16:12:46;;;;;;;50.23;19.10;;;;;;;-1.12;100.00;98538.22;10371934;28;20213;-66
2023/01/24 16:17:47;;;;;;;52.57;18.80;;;;;;;-1.21;100.00;98533.31;10393921;28;20629;-67
2023/01/24 16:22:47;;;;;;;47.33;19.10;;;;;;;-1.20;100.00;98524.69;10371728;28;20296;-66
2023/01/24 16:27:48;;;;;;;51.83;19.33;;;;;;;-1.30;100.00;98520.69;10372011;28;20196;-66
2023/01/24 16:32:49;;;;;;;43.37;18.93;;;;;;;-1.16;100.00;98515.19;10360171;28;20593;-65
2023/01/24 16:37:50;;;;;;;48.80;19.70;;;;;;;-1.18;100.00;98510.09;10411554;28;20301;-66
2023/01/24 16:42:51;;;;;;;57.20;23.37;;;;;;;-1.31;100.00;98516.41;10412434;28;20667;-67
2023/01/24 16:47:51;;;;;;;69.10;22.63;;;;;;;-1.38;100.00;98513.13;10408531;28;20581;-65
2023/01/24 16:52:52;;;;;;;52.43;20.03;;;;;;;-1.14;100.00;98518.56;10412084;28;20236;-67
2023/01/24 16:57:53;;;;;;;63.07;21.67;;;;;;;-1.30;100.00;98518.09;10411713;28;20224;-68
2023/01/24 17:02:54;;;;;;;68.03;25.97;;;;;;;-1.35;100.00;98515.63;10410916;28;20300;-68
2023/01/24 17:07:56;;;;;;;62.87;22.43;;;;;;;-1.37;100.00;98507.13;10379205;28;20250;-68
2023/01/24 17:12:57;;;;;;;61.30;21.47;;;;;;;-1.24;100.00;98514.53;10411214;28;20261;-67
2023/01/24 17:17:57;;;;;;;59.70;21.63;;;;;;;-1.25;100.00;98518.81;10412032;28;20266;-67
2023/01/24 17:22:59;;;;;;;59.87;19.70;;;;;;;-1.38;100.00;98515.69;10405603;28;20213;-68
2023/01/24 17:28:00;;;;;;;56.03;21.17;;;;;;;-1.22;100.00;98517.91;10386291;28;20196;-67
2023/01/24 17:33:00;;;;;;;50.43;18.97;;;;;;;-1.21;100.00;98519.59;10370747;28;20306;-67
2023/01/24 17:38:02;;;;;;;53.83;20.87;;;;;;;-1.33;100.00;98515.59;10370800;28;20316;-68
2023/01/24 17:43:02;;;;;;;50.00;18.33;;;;;;;-1.27;100.00;98521.44;10370526;28;20579;-68
2023/01/24 17:48:02;;;;;;;43.13;17.10;;;;;;;-1.40;100.00;98521.78;10377869;28;20193;-67
2023/01/24 17:53:03;;;;;;;60.00;20.77;;;;;;;-1.41;100.00;98522.66;10387949;28;20236;-66
2023/01/24 17:58:03;;;;;;;49.70;18.80;;;;;;;-1.44;100.00;98527.00;10370095;28;20299;-67
2023/01/24 18:03:05;;;;;;;56.07;20.13;;;;;;;-1.43;100.00;98538.09;10369286;28;20208;-65
2023/01/24 18:08:06;;;;;;;57.43;21.47;;;;;;;-1.35;100.00;98537.94;10369437;28;20186;-67
2023/01/24 18:13:07;;;;;;;71.90;30.83;;;;;;;-1.39;100.00;98534.59;10369148;28;20209;-67
2023/01/24 18:18:07;;;;;;;85.93;26.87;;;;;;;-1.43;100.00;98532.97;10369829;28;21030;-69
2023/01/24 18:23:07;;;;;;;63.10;20.93;;;;;;;-1.39;100.00;98533.72;10368707;28;20211;-67
2023/01/24 18:28:08;;;;;;;75.67;24.20;;;;;;;-1.45;100.00;98529.59;10419781;28;20193;-66
2023/01/24 18:33:08;;;;;;;60.93;23.70;;;;;;;-1.41;100.00;98526.06;10383198;28;20693;-69
2023/01/24 18:38:09;;;;;;;70.47;26.10;;;;;;;-1.44;100.00;98521.84;10368122;28;20217;-68
2023/01/24 18:43:10;;;;;;;68.20;23.43;;;;;;;-1.42;100.00;98538.94;10368214;28;20370;-69
2023/01/24 18:48:10;;;;;;;66.07;21.50;;;;;;;-1.41;100.00;98535.50;10368594;28;20181;-68
2023/01/24 18:53:11;;;;;;;62.13;21.63;;;;;;;-1.38;100.00;98535.44;10367859;28;20270;-68
2023/01/24 18:58:11;;;;;;;95.47;23.30;;;;;;;-1.47;100.00;98531.34;10369608;28;20227;-68
2023/01/24 19:03:11;;;;;;;76.43;22.63;;;;;;;-1.43;100.00;98540.69;10376149;28;20212;-66
2023/01/24 19:08:12;;;;;;;80.30;23.03;;;;;;;-1.46;100.00;98553.59;10375541;28;20189;-68
2023/01/24 19:13:12;;;;;;;69.60;22.63;;;;;;;-1.43;100.00;98553.53;10375932;28;20308;-68
2023/01/24 19:18:13;;;;;;;68.67;22.47;;;;;;;-1.47;100.00;98547.63;10375428;28;20224;-68
2023/01/24 19:23:13;;;;;;;75.03;21.73;;;;;;;-1.37;100.00;98544.84;10375151;28;20212;-67
2023/01/24 19:28:13;;;;;;;66.17;22.20;;;;;;;-1.44;100.00;98542.41;10375878;28;20279;-66
2023/01/24 19:33:14;;;;;;;70.30;22.00;;;;;;;-1.38;100.00;98540.56;10386923;28;20208;-68
2023/01/24 19:38:14;;;;;;;69.43;21.97;;;;;;;-1.41;100.00;98531.19;10378579;28;20216;-68
2023/01/24 19:43:15;;;;;;;58.00;20.00;;;;;;;-1.36;100.00;98534.53;10404102;28;20307;-69
2023/01/24 19:48:15;;;;;;;69.33;27.03;;;;;;;-1.33;100.00;98531.00;10375022;28;20233;-67
2023/01/24 19:53:16;;;;;;;49.27;18.13;;;;;;;-1.32;100.00;98543.84;10383748;28;20236;-69
2023/01/24 19:58:16;;;;;;;52.03;20.00;;;;;;;-1.29;100.00;98535.19;10390674;28;20211;-67
2023/01/24 20:03:16;;;;;;;48.80;19.07;;;;;;;-1.21;100.00;98533.31;10395379;28;20215;-68
2023/01/24 20:08:17;;;;;;;40.10;16.63;;;;;;;-1.27;100.00;98536.03;10389211;28;20199;-67
2023/01/24 20:13:17;;;;;;;47.50;16.80;;;;;;;-1.38;100.00;98538.00;10391290;28;20214;-69
2023/01/24 20:18:17;;;;;;;51.93;19.27;;;;;;;-1.39;100.00;98534.59;10410328;28;20236;-67
2023/01/24 20:23:18;;;;;;;58.83;18.97;;;;;;;-1.38;100.00;98530.28;10413651;28;20299;-69
2023/01/24 20:28:18;;;;;;;66.40;21.97;;;;;;;-1.38;100.00;98527.72;10414042;28;20200;-68
2023/01/24 20:33:18;;;;;;;66.37;21.30;;;;;;;-1.35;100.00;98535.34;10413339;28;20211;-68
2023/01/24 20:38:19;;;;;;;71.73;22.07;;;;;;;-1.38;100.00;98536.25;10413388;28;20232;-67
2023/01/24 20:43:19;;;;;;;44.77;16.67;;;;;;;-1.31;100.00;98529.25;10412807;28;20228;-67
2023/01/24 20:48:19;;;;;;;47.73;17.53;;;;;;;-1.20;100.00;98537.53;10414721;28;20231;-66
2023/01/24 20:53:20;;;;;;;38.07;15.43;;;;;;;-1.18;100.00;98532.38;10412573;28;20249;-67
2023/01/24 20:58:21;;;;;;;40.77;15.03;;;;;;;-1.23;100.00;98532.47;10401937;28;20213;-66
2023/01/24 21:03:24;;;;;;;35.03;15.63;;;;;;;-1.26;100.00;98529.97;10371184;28;20216;-66
2023/01/24 21:08:24;;;;;;;33.07;13.83;;;;;;;-1.30;100.00;98525.81;10353117;28;20186;-66
2023/01/24 21:13:26;;;;;;;42.47;15.80;;;;;;;-1.34;100.00;98514.75;10371097;28;20246;-68
2023/01/24 21:18:28;;;;;;;38.40;15.53;;;;;;;-1.33;100.00;98518.16;10353554;28;20776;-68
2023/01/24 21:23:28;;;;;;;36.23;15.77;;;;;;;-1.29;100.00;98518.06;10374169;28;20661;-68
2023/01/24 21:28:29;;;;;;;40.70;15.43;;;;;;;-1.32;100.00;98520.72;10403030;28;20245;-65
2023/01/24 21:33:29;;;;;;;46.43;16.70;;;;;;;-1.33;100.00;98518.16;10364510;28;20215;-65
2023/01/24 21:38:31;;;;;;;36.40;16.07;;;;;;;-1.29;100.00;98523.22;10366090;28;20211;-68
2023/01/24 21:43:31;;;;;;;55.37;18.47;;;;;;;-1.34;100.00;98525.03;10360956;28;20663;-65
2023/01/24 21:54:05;;;;;;;47.37;18.50;;;;;;;-1.22;100.00;98517.91;10376695;28;20233;-67
2023/01/24 21:59:05;;;;;;;54.40;16.90;;;;;;;-1.23;100.00;98506.75;10368045;28;20646;-67
2023/01/24 22:04:05;;;;;;;48.50;17.73;;;;;;;-1.31;100.00;98504.38;10367076;28;20294;-66
2023/01/24 22:09:06;;;;;;;51.10;16.93;;;;;;;-1.32;100.00;98502.72;10366998;28;20185;-67
2023/01/24 22:14:12;;;;;;;48.63;16.63;;;;;;;-1.33;100.00;98507.88;10367908;28;20227;-67
2023/01/24 22:19:15;;;;;;;45.97;16.80;;;;;;;-1.34;100.00;98509.59;10349957;28;20244;-67
2023/01/24 22:24:21;;;;;;;48.20;17.43;;;;;;;-1.38;100.00;98512.28;10368856;28;20275;-67
2023/01/24 22:29:21;;;;;;;50.80;18.40;;;;;;;-1.38;100.00;98509.72;10368489;28;20736;-66
2023/01/24 22:34:22;;;;;;;55.40;18.37;;;;;;;-1.38;100.00;98505.41;10368322;28;20215;-66
2023/01/24 22:39:22;;;;;;;53.30;17.03;;;;;;;-1.38;100.00;98499.44;10349864;28;20219;-68
2023/01/24 22:44:23;;;;;;;57.83;19.60;;;;;;;-1.37;100.00;98490.84;10366605;28;20269;-67
2023/01/24 22:49:23;;;;;;;51.87;19.40;;;;;;;-1.39;100.00;98490.91;10368155;28;20276;-66
2023/01/24 22:54:23;;;;;;;75.20;21.57;;;;;;;-1.37;100.00;98491.69;10366569;28;20233;-66
2023/01/24 22:59:24;;;;;;;78.43;21.07;;;;;;;-1.42;100.00;98488.41;10410429;23;20243;-62
2023/01/24 23:04:24;;;;;;;71.73;22.90;;;;;;;-1.37;100.00;98489.13;10368444;28;20985;-63
2023/01/24 23:09:24;;;;;;;69.23;20.50;;;;;;;-1.37;100.00;98489.13;10332846;28;20276;-62
2023/01/24 23:25:05;;;;;;;65.53;18.80;;;;;;;-1.39;100.00;98482.31;10328009;28;20190;-62
2023/01/24 23:30:31;;;;;;;67.97;20.13;;;;;;;-1.38;100.00;98474.56;10326916;28;20212;-63
2023/01/24 23:35:32;;;;;;;72.93;20.80;;;;;;;-1.35;100.00;98478.78;10327574;28;20226;-62
2023/01/24 23:40:32;;;;;;;73.07;21.50;;;;;;;-1.37;100.00;98471.13;10327124;28;20222;-63
2023/01/24 23:45:32;;;;;;;83.60;21.40;;;;;;;-1.38;100.00;98474.56;10330627;28;20300;-62
2023/01/24 23:50:33;;;;;;;73.23;21.03;;;;;;;-1.39;100.00;98467.75;10334600;28;20193;-63
2023/01/24 23:55:33;;;;;;;87.00;21.00;;;;;;;-1.38;100.00;98469.44;10334111;28;20226;-63
